KRAP

Rapid City Regional Airport

Rapid City, South Dakota, USA
METAR KRAP 151852Z 14009KT 3/4SM -SN VV013 M13/M16 A2986 RMK AO2 SLP177 P0004 T11331161 RVRNO
Observed Flight Rules
Feb-15 @ 18:52 UTC (16 minutes ago) Instrument Flight Rules
Wind Visibility Clouds Conditions
140° at 9 knots 3/4 miles
  • Vertical visibility at 1,300' AGL
  • Light Snow
Temperatures Readings Precipitation
Current -13°C / 9°F
Dewpoint -16°C / 3°F
Humidity 78%
Altimeter 29.86" Hg
Pressure 1017.7 hPa
Elevation 965
Current Rain 0.04
METAR KRAP 151852Z 14009KT 3/4SM -SN VV013 M13/M16 A2986 RMK AO2 SLP177 P0004 T11331161 RVRNO
Observed Flight Rules
Feb-15 @ 18:52 UTC
(16 minutes ago)
LIFR
Wind Visibility
140° at 9 knots 3/4 miles
Clouds
  • Vertical visibility at 1,300' AGL
Conditions
  • Light Snow
Temperature Dewpoint
-13°C / 9°F -16°C / 3°F
Humidity Altimeter Pressure
78% 29.86" Hg 1017.7 hPa
Current Rain
0.04